sensor_id;sensor_type;location;lat;lon;timestamp;pressure;altitude;pressure_sealevel;temperature;humidity
49947;BME280;35839;48.662;13.300;2023-02-22T05:37:56;97271.41;;;2.85;100.00
49947;BME280;35839;48.662;13.300;2023-02-22T05:40:24;97272.63;;;2.92;100.00
49947;BME280;35839;48.662;13.300;2023-02-22T05:42:50;97269.44;;;2.50;100.00
49947;BME280;35839;48.662;13.300;2023-02-22T05:45:18;97265.50;;;2.83;100.00
49947;BME280;35839;48.662;13.300;2023-02-22T05:47:44;97275.22;;;2.67;100.00
49947;BME280;35839;48.662;13.300;2023-02-22T05:50:10;97267.97;;;2.98;100.00
49947;BME280;35839;48.662;13.300;2023-02-22T05:52:36;97269.59;;;3.11;100.00
49947;BME280;35839;48.662;13.300;2023-02-22T05:55:03;97281.03;;;2.58;100.00
49947;BME280;35839;48.662;13.300;2023-02-22T05:57:29;97275.22;;;2.41;100.00
49947;BME280;35839;48.662;13.300;2023-02-22T05:59:54;97275.31;;;2.91;100.00
49947;BME280;35839;48.662;13.300;2023-02-22T06:02:19;97278.53;;;2.43;100.00
49947;BME280;35839;48.662;13.300;2023-02-22T06:04:46;97286.63;;;2.11;100.00
49947;BME280;35839;48.662;13.300;2023-02-22T06:07:12;97280.34;;;2.16;100.00
49947;BME280;35839;48.662;13.300;2023-02-22T06:09:37;97280.56;;;2.13;100.00
49947;BME280;35839;48.662;13.300;2023-02-22T06:12:03;97279.69;;;1.99;100.00
49947;BME280;35839;48.662;13.300;2023-02-22T06:14:28;97289.63;;;2.05;100.00
49947;BME280;35839;48.662;13.300;2023-02-22T06:16:55;97286.59;;;2.39;100.00
49947;BME280;35839;48.662;13.300;2023-02-22T06:19:20;97283.88;;;2.27;100.00
49947;BME280;35839;48.662;13.300;2023-02-22T06:21:51;97283.72;;;2.69;100.00
49947;BME280;35839;48.662;13.300;2023-02-22T06:24:17;97285.34;;;2.44;100.00
49947;BME280;35839;48.662;13.300;2023-02-22T06:26:42;97279.78;;;2.50;100.00
49947;BME280;35839;48.662;13.300;2023-02-22T06:29:08;97289.50;;;2.60;100.00
49947;BME280;35839;48.662;13.300;2023-02-22T06:31:33;97292.38;;;2.68;100.00
49947;BME280;35839;48.662;13.300;2023-02-22T06:33:59;97287.84;;;2.84;100.00
49947;BME280;35839;48.662;13.300;2023-02-22T06:36:24;97294.56;;;2.74;100.00
49947;BME280;35839;48.662;13.300;2023-02-22T06:38:49;97287.66;;;2.87;100.00
49947;BME280;35839;48.662;13.300;2023-02-22T06:41:15;97297.16;;;3.12;100.00
49947;BME280;35839;48.662;13.300;2023-02-22T06:43:40;97298.59;;;2.91;100.00
49947;BME280;35839;48.662;13.300;2023-02-22T06:46:09;97292.84;;;3.37;100.00
49947;BME280;35839;48.662;13.300;2023-02-22T06:48:36;97294.53;;;3.62;100.00
49947;BME280;35839;48.662;13.300;2023-02-22T06:51:02;97299.75;;;3.49;100.00
49947;BME280;35839;48.662;13.300;2023-02-22T06:53:28;97295.59;;;2.84;100.00
49947;BME280;35839;48.662;13.300;2023-02-22T06:55:53;97296.50;;;3.09;100.00
49947;BME280;35839;48.662;13.300;2023-02-22T06:58:19;97295.78;;;3.20;100.00
49947;BME280;35839;48.662;13.300;2023-02-22T07:00:44;97298.16;;;3.10;100.00
49947;BME280;35839;48.662;13.300;2023-02-22T07:03:10;97297.84;;;3.27;100.00
49947;BME280;35839;48.662;13.300;2023-02-22T07:05:35;97299.59;;;3.14;100.00
49947;BME280;35839;48.662;13.300;2023-02-22T07:08:03;97305.41;;;3.05;100.00
49947;BME280;35839;48.662;13.300;2023-02-22T07:10:30;97303.88;;;3.15;100.00
49947;BME280;35839;48.662;13.300;2023-02-22T07:12:56;97299.56;;;3.40;100.00
49947;BME280;35839;48.662;13.300;2023-02-22T07:15:24;97302.66;;;3.45;100.00
49947;BME280;35839;48.662;13.300;2023-02-22T07:17:50;97308.44;;;3.48;100.00
49947;BME280;35839;48.662;13.300;2023-02-22T07:20:17;97297.53;;;3.56;100.00
49947;BME280;35839;48.662;13.300;2023-02-22T07:22:42;97305.53;;;3.53;100.00
49947;BME280;35839;48.662;13.300;2023-02-22T07:25:08;97300.03;;;3.82;100.00
49947;BME280;35839;48.662;13.300;2023-02-22T07:27:36;97303.41;;;3.71;100.00
49947;BME280;35839;48.662;13.300;2023-02-22T07:30:03;97306.03;;;3.58;100.00
49947;BME280;35839;48.662;13.300;2023-02-22T07:32:29;97308.44;;;3.48;100.00
49947;BME280;35839;48.662;13.300;2023-02-22T07:34:54;97303.44;;;3.58;100.00
49947;BME280;35839;48.662;13.300;2023-02-22T07:37:19;97307.22;;;3.78;100.00
49947;BME280;35839;48.662;13.300;2023-02-22T07:39:45;97302.38;;;3.73;100.00
49947;BME280;35839;48.662;13.300;2023-02-22T07:42:10;97295.47;;;4.09;100.00
49947;BME280;35839;48.662;13.300;2023-02-22T07:44:36;97300.41;;;4.12;100.00
49947;BME280;35839;48.662;13.300;2023-02-22T07:47:01;97293.00;;;3.84;100.00
49947;BME280;35839;48.662;13.300;2023-02-22T07:49:27;97298.81;;;4.22;100.00
49947;BME280;35839;48.662;13.300;2023-02-22T07:51:52;97293.78;;;4.32;100.00
49947;BME280;35839;48.662;13.300;2023-02-22T07:54:17;97296.09;;;4.71;100.00
49947;BME280;35839;48.662;13.300;2023-02-22T07:56:46;97297.09;;;4.92;100.00
49947;BME280;35839;48.662;13.300;2023-02-22T07:59:13;97294.25;;;4.84;100.00
49947;BME280;35839;48.662;13.300;2023-02-22T08:01:38;97289.53;;;5.23;100.00
49947;BME280;35839;48.662;13.300;2023-02-22T08:04:04;97283.47;;;5.56;100.00
49947;BME280;35839;48.662;13.300;2023-02-22T08:06:29;97287.97;;;5.54;100.00
49947;BME280;35839;48.662;13.300;2023-02-22T08:08:56;97272.66;;;5.83;100.00
49947;BME280;35839;48.662;13.300;2023-02-22T08:11:21;97270.09;;;5.72;100.00
49947;BME280;35839;48.662;13.300;2023-02-22T08:13:46;97273.41;;;5.74;100.00
49947;BME280;35839;48.662;13.300;2023-02-22T08:16:12;97269.63;;;5.78;100.00
49947;BME280;35839;48.662;13.300;2023-02-22T08:18:37;97264.91;;;5.72;100.00
49947;BME280;35839;48.662;13.300;2023-02-22T08:21:03;97269.94;;;5.85;100.00
49947;BME280;35839;48.662;13.300;2023-02-22T08:23:28;97269.84;;;6.40;100.00
49947;BME280;35839;48.662;13.300;2023-02-22T08:25:54;97268.22;;;6.60;100.00
49947;BME280;35839;48.662;13.300;2023-02-22T08:28:21;97261.72;;;6.54;100.00
49947;BME280;35839;48.662;13.300;2023-02-22T08:30:48;97260.78;;;6.55;100.00
49947;BME280;35839;48.662;13.300;2023-02-22T08:33:15;97268.09;;;6.92;100.00
49947;BME280;35839;48.662;13.300;2023-02-22T08:35:43;97259.44;;;7.22;100.00
49947;BME280;35839;48.662;13.300;2023-02-22T08:38:19;97272.25;;;7.35;100.00
49947;BME280;35839;48.662;13.300;2023-02-22T08:40:46;97266.75;;;7.38;100.00
49947;BME280;35839;48.662;13.300;2023-02-22T08:43:12;97262.13;;;7.51;100.00
49947;BME280;35839;48.662;13.300;2023-02-22T08:45:38;97259.56;;;7.71;100.00
49947;BME280;35839;48.662;13.300;2023-02-22T08:48:03;97262.22;;;7.90;100.00
49947;BME280;35839;48.662;13.300;2023-02-22T08:50:31;97257.53;;;7.94;100.00
49947;BME280;35839;48.662;13.300;2023-02-22T08:53:01;97258.91;;;8.08;100.00
49947;BME280;35839;48.662;13.300;2023-02-22T08:55:29;97255.53;;;8.74;100.00
49947;BME280;35839;48.662;13.300;2023-02-22T08:57:56;97252.69;;;8.77;100.00
49947;BME280;35839;48.662;13.300;2023-02-22T09:00:22;97249.06;;;8.88;100.00
49947;BME280;35839;48.662;13.300;2023-02-22T09:02:49;97250.97;;;8.85;100.00
49947;BME280;35839;48.662;13.300;2023-02-22T09:05:15;97237.00;;;9.14;100.00
49947;BME280;35839;48.662;13.300;2023-02-22T09:07:41;97240.72;;;9.39;100.00
49947;BME280;35839;48.662;13.300;2023-02-22T09:10:13;97234.34;;;9.87;100.00
49947;BME280;35839;48.662;13.300;2023-02-22T09:12:40;97224.72;;;9.88;100.00
49947;BME280;35839;48.662;13.300;2023-02-22T09:15:05;97228.16;;;10.06;100.00
49947;BME280;35839;48.662;13.300;2023-02-22T09:17:30;97230.91;;;10.23;100.00
49947;BME280;35839;48.662;13.300;2023-02-22T09:19:56;97231.13;;;10.47;100.00
49947;BME280;35839;48.662;13.300;2023-02-22T09:22:21;97226.91;;;10.81;100.00
49947;BME280;35839;48.662;13.300;2023-02-22T09:24:46;97220.81;;;11.06;100.00
49947;BME280;35839;48.662;13.300;2023-02-22T09:27:12;97220.38;;;11.86;100.00
49947;BME280;35839;48.662;13.300;2023-02-22T09:29:37;97222.25;;;12.18;100.00
49947;BME280;35839;48.662;13.300;2023-02-22T09:32:03;97225.53;;;12.04;100.00
49947;BME280;35839;48.662;13.300;2023-02-22T09:34:29;97212.75;;;12.17;100.00
49947;BME280;35839;48.662;13.300;2023-02-22T09:36:59;97216.66;;;11.89;100.00
49947;BME280;35839;48.662;13.300;2023-02-22T09:39:24;97216.03;;;12.03;100.00
49947;BME280;35839;48.662;13.300;2023-02-22T09:42:08;97213.38;;;11.87;100.00
49947;BME280;35839;48.662;13.300;2023-02-22T09:47:19;97199.44;;;12.43;100.00
49947;BME280;35839;48.662;13.300;2023-02-22T09:49:57;97200.03;;;12.78;100.00
49947;BME280;35839;48.662;13.300;2023-02-22T09:52:33;97194.75;;;13.26;100.00
49947;BME280;35839;48.662;13.300;2023-02-22T09:55:07;97183.19;;;13.75;100.00
49947;BME280;35839;48.662;13.300;2023-02-22T09:57:36;97186.41;;;14.46;100.00
49947;BME280;35839;48.662;13.300;2023-02-22T10:05:28;97180.28;;;14.98;95.82
49947;BME280;35839;48.662;13.300;2023-02-22T10:08:00;97180.44;;;15.11;95.05
49947;BME280;35839;48.662;13.300;2023-02-22T10:10:32;97169.78;;;15.34;94.98
49947;BME280;35839;48.662;13.300;2023-02-22T10:15:59;97159.97;;;15.65;91.40
49947;BME280;35839;48.662;13.300;2023-02-22T10:19:03;97164.97;;;15.74;88.57
49947;BME280;35839;48.662;13.300;2023-02-22T10:26:51;97144.66;;;16.25;86.32
49947;BME280;35839;48.662;13.300;2023-02-22T10:29:40;97153.09;;;16.98;81.41
49947;BME280;35839;48.662;13.300;2023-02-22T10:32:16;97146.41;;;17.02;80.37
49947;BME280;35839;48.662;13.300;2023-02-22T10:34:47;97153.06;;;16.91;83.36
49947;BME280;35839;48.662;13.300;2023-02-22T10:37:29;97151.50;;;16.75;82.33
49947;BME280;35839;48.662;13.300;2023-02-22T10:39:59;97147.56;;;16.58;83.04
49947;BME280;35839;48.662;13.300;2023-02-22T10:42:29;97146.69;;;16.51;84.03
49947;BME280;35839;48.662;13.300;2023-02-22T10:44:54;97150.59;;;17.38;76.80
49947;BME280;35839;48.662;13.300;2023-02-22T10:47:20;97139.03;;;16.91;81.00
49947;BME280;35839;48.662;13.300;2023-02-22T10:49:50;97136.75;;;16.88;80.41
49947;BME280;35839;48.662;13.300;2023-02-22T10:52:22;97135.94;;;17.35;78.07
49947;BME280;35839;48.662;13.300;2023-02-22T10:54:49;97132.94;;;16.97;78.83
49947;BME280;35839;48.662;13.300;2023-02-22T10:57:23;97129.56;;;17.98;73.46
49947;BME280;35839;48.662;13.300;2023-02-22T10:59:49;97121.44;;;17.93;74.17
49947;BME280;35839;48.662;13.300;2023-02-22T11:02:30;97119.09;;;17.56;72.59
49947;BME280;35839;48.662;13.300;2023-02-22T11:04:58;97123.56;;;17.49;74.35
49947;BME280;35839;48.662;13.300;2023-02-22T11:07:30;97119.38;;;17.88;73.10
49947;BME280;35839;48.662;13.300;2023-02-22T11:10:06;97114.91;;;17.88;72.28
49947;BME280;35839;48.662;13.300;2023-02-22T11:12:39;97111.22;;;18.09;70.87
49947;BME280;35839;48.662;13.300;2023-02-22T11:15:23;97106.69;;;18.43;68.60
49947;BME280;35839;48.662;13.300;2023-02-22T11:17:54;97102.66;;;17.94;71.31
49947;BME280;35839;48.662;13.300;2023-02-22T11:20:25;97095.94;;;18.18;69.85
49947;BME280;35839;48.662;13.300;2023-02-22T11:22:56;97095.19;;;18.76;67.12
49947;BME280;35839;48.662;13.300;2023-02-22T11:25:40;97092.63;;;18.49;68.63
49947;BME280;35839;48.662;13.300;2023-02-22T11:28:09;97079.38;;;18.49;69.23
49947;BME280;35839;48.662;13.300;2023-02-22T11:30:39;97084.69;;;18.43;67.45
49947;BME280;35839;48.662;13.300;2023-02-22T11:38:21;97066.22;;;18.88;67.48
49947;BME280;35839;48.662;13.300;2023-02-22T11:41:05;97062.34;;;19.29;63.51
49947;BME280;35839;48.662;13.300;2023-02-22T11:43:32;97067.19;;;19.00;64.14
49947;BME280;35839;48.662;13.300;2023-02-22T11:46:05;97058.88;;;19.60;61.67
49947;BME280;35839;48.662;13.300;2023-02-22T11:48:34;97052.84;;;19.14;63.92
49947;BME280;35839;48.662;13.300;2023-02-22T11:57:18;97040.63;;;18.48;66.86
49947;BME280;35839;48.662;13.300;2023-02-22T12:13:54;97023.56;;;19.28;64.04
49947;BME280;35839;48.662;13.300;2023-02-22T12:19:10;97021.06;;;20.15;58.77
49947;BME280;35839;48.662;13.300;2023-02-22T12:21:42;97013.81;;;19.78;59.16
49947;BME280;35839;48.662;13.300;2023-02-22T12:24:13;97011.44;;;19.70;59.94
49947;BME280;35839;48.662;13.300;2023-02-22T12:26:43;97017.66;;;19.51;61.61
49947;BME280;35839;48.662;13.300;2023-02-22T12:29:33;97015.06;;;19.76;59.87
49947;BME280;35839;48.662;13.300;2023-02-22T12:32:09;97017.31;;;20.41;57.38
49947;BME280;35839;48.662;13.300;2023-02-22T12:34:41;97008.06;;;20.25;58.18
49947;BME280;35839;48.662;13.300;2023-02-22T12:37:13;97010.06;;;20.30;59.26
49947;BME280;35839;48.662;13.300;2023-02-22T12:40:03;97010.13;;;20.23;59.39
49947;BME280;35839;48.662;13.300;2023-02-22T12:42:46;97005.56;;;20.67;56.97
49947;BME280;35839;48.662;13.300;2023-02-22T12:45:25;97005.13;;;20.70;55.68
49947;BME280;35839;48.662;13.300;2023-02-22T12:48:01;97005.22;;;20.63;57.06
49947;BME280;35839;48.662;13.300;2023-02-22T12:50:31;96995.66;;;20.74;56.90
49947;BME280;35839;48.662;13.300;2023-02-22T12:53:06;96989.72;;;20.91;55.83
49947;BME280;35839;48.662;13.300;2023-02-22T12:55:43;97000.16;;;20.55;56.79
49947;BME280;35839;48.662;13.300;2023-02-22T12:58:20;96993.84;;;20.56;60.58
49947;BME280;35839;48.662;13.300;2023-02-22T13:03:37;96988.94;;;20.16;58.20
49947;BME280;35839;48.662;13.300;2023-02-22T13:11:52;96979.59;;;20.81;56.98
49947;BME280;35839;48.662;13.300;2023-02-22T13:14:39;96979.91;;;20.91;52.54
49947;BME280;35839;48.662;13.300;2023-02-22T13:17:21;96971.22;;;21.26;56.48
49947;BME280;35839;48.662;13.300;2023-02-22T13:20:00;96984.16;;;20.62;56.16
49947;BME280;35839;48.662;13.300;2023-02-22T13:22:38;96974.38;;;21.04;55.56
49947;BME280;35839;48.662;13.300;2023-02-22T13:27:59;96964.09;;;21.85;54.04
49947;BME280;35839;48.662;13.300;2023-02-22T13:38:47;96958.13;;;22.54;50.18
49947;BME280;35839;48.662;13.300;2023-02-22T13:41:55;96957.63;;;22.69;50.88
49947;BME280;35839;48.662;13.300;2023-02-22T13:49:39;96948.78;;;22.97;47.43
49947;BME280;35839;48.662;13.300;2023-02-22T13:52:15;96945.84;;;23.10;46.47
49947;BME280;35839;48.662;13.300;2023-02-22T13:54:50;96952.66;;;23.35;45.83
49947;BME280;35839;48.662;13.300;2023-02-22T13:57:32;96947.75;;;21.46;50.60
49947;BME280;35839;48.662;13.300;2023-02-22T14:10:54;96932.44;;;22.65;46.79
49947;BME280;35839;48.662;13.300;2023-02-22T14:13:25;96931.09;;;21.86;49.22
49947;BME280;35839;48.662;13.300;2023-02-22T14:18:41;96934.09;;;22.02;49.89
49947;BME280;35839;48.662;13.300;2023-02-22T14:21:12;96923.53;;;22.88;48.15
49947;BME280;35839;48.662;13.300;2023-02-22T14:23:40;96926.16;;;22.30;46.86
49947;BME280;35839;48.662;13.300;2023-02-22T14:28:58;96923.13;;;23.25;46.08
49947;BME280;35839;48.662;13.300;2023-02-22T14:31:52;96922.22;;;23.19;41.81
49947;BME280;35839;48.662;13.300;2023-02-22T14:36:52;96917.50;;;22.23;45.37
49947;BME280;35839;48.662;13.300;2023-02-22T14:47:16;96907.56;;;23.55;42.44
49947;BME280;35839;48.662;13.300;2023-02-22T14:49:46;96907.56;;;23.55;42.03
49947;BME280;35839;48.662;13.300;2023-02-22T14:52:27;96916.47;;;22.82;45.11
49947;BME280;35839;48.662;13.300;2023-02-22T14:54:59;96910.38;;;22.41;45.19
49947;BME280;35839;48.662;13.300;2023-02-22T15:00:42;96901.97;;;22.08;47.00
49947;BME280;35839;48.662;13.300;2023-02-22T15:03:28;96912.16;;;21.29;45.90
49947;BME280;35839;48.662;13.300;2023-02-22T15:06:17;96904.53;;;21.44;47.48
49947;BME280;35839;48.662;13.300;2023-02-22T15:08:45;96903.50;;;21.93;45.94
49947;BME280;35839;48.662;13.300;2023-02-22T15:11:24;96908.84;;;21.81;45.79
49947;BME280;35839;48.662;13.300;2023-02-22T15:13:52;96904.91;;;21.83;49.31
49947;BME280;35839;48.662;13.300;2023-02-22T15:16:19;96902.72;;;23.19;46.75
49947;BME280;35839;48.662;13.300;2023-02-22T15:18:47;96897.00;;;24.00;45.62
49947;BME280;35839;48.662;13.300;2023-02-22T15:21:22;96898.47;;;24.78;42.33
49947;BME280;35839;48.662;13.300;2023-02-22T15:23:50;96898.03;;;25.56;40.19
49947;BME280;35839;48.662;13.300;2023-02-22T15:26:25;96896.56;;;25.38;38.10
49947;BME280;35839;48.662;13.300;2023-02-22T15:28:56;96897.44;;;23.58;39.26
49947;BME280;35839;48.662;13.300;2023-02-22T15:31:34;96899.72;;;22.69;43.46
49947;BME280;35839;48.662;13.300;2023-02-22T15:36:42;96893.38;;;20.58;50.17
49947;BME280;35839;48.662;13.300;2023-02-22T15:39:32;96897.53;;;19.81;53.72
49947;BME280;35839;48.662;13.300;2023-02-22T15:42:14;96894.88;;;20.17;51.40
49947;BME280;35839;48.662;13.300;2023-02-22T15:44:48;96889.28;;;19.89;51.92
49947;BME280;35839;48.662;13.300;2023-02-22T15:47:22;96888.97;;;19.35;53.68
49947;BME280;35839;48.662;13.300;2023-02-22T15:50:18;96881.84;;;18.33;57.25
49947;BME280;35839;48.662;13.300;2023-02-22T15:52:52;96896.53;;;17.24;64.33
49947;BME280;35839;48.662;13.300;2023-02-22T15:55:20;96893.47;;;17.61;62.94
49947;BME280;35839;48.662;13.300;2023-02-22T15:57:48;96900.19;;;17.03;65.31
49947;BME280;35839;48.662;13.300;2023-02-22T16:00:26;96887.41;;;17.00;64.88
49947;BME280;35839;48.662;13.300;2023-02-22T16:03:03;96886.22;;;16.35;67.72
49947;BME280;35839;48.662;13.300;2023-02-22T16:05:41;96892.06;;;17.32;63.76
49947;BME280;35839;48.662;13.300;2023-02-22T16:08:35;96891.25;;;17.51;66.82
49947;BME280;35839;48.662;13.300;2023-02-22T16:11:07;96896.47;;;16.58;77.84
49947;BME280;35839;48.662;13.300;2023-02-22T16:13:39;96895.53;;;17.25;67.60
49947;BME280;35839;48.662;13.300;2023-02-22T16:16:19;96891.06;;;16.18;71.49
49947;BME280;35839;48.662;13.300;2023-02-22T16:18:49;96888.53;;;16.71;68.35
49947;BME280;35839;48.662;13.300;2023-02-22T16:21:20;96897.59;;;15.87;75.80
49947;BME280;35839;48.662;13.300;2023-02-22T16:23:47;96894.03;;;16.63;71.22
49947;BME280;35839;48.662;13.300;2023-02-22T16:26:20;96894.28;;;16.13;73.33
49947;BME280;35839;48.662;13.300;2023-02-22T16:29:07;96897.94;;;16.19;72.11
49947;BME280;35839;48.662;13.300;2023-02-22T16:31:35;96895.34;;;16.26;71.76
49947;BME280;35839;48.662;13.300;2023-02-22T16:34:02;96898.00;;;16.32;71.14
49947;BME280;35839;48.662;13.300;2023-02-22T16:36:45;96894.38;;;16.40;70.81
49947;BME280;35839;48.662;13.300;2023-02-22T16:39:26;96902.44;;;16.18;72.64
49947;BME280;35839;48.662;13.300;2023-02-22T16:41:58;96900.03;;;16.30;71.97
49947;BME280;35839;48.662;13.300;2023-02-22T16:44:25;96901.13;;;16.01;72.96
49947;BME280;35839;48.662;13.300;2023-02-22T16:46:51;96895.34;;;15.84;74.49
49947;BME280;35839;48.662;13.300;2023-02-22T16:49:17;96908.28;;;15.16;76.79
49947;BME280;35839;48.662;13.300;2023-02-22T16:51:44;96908.69;;;15.20;75.21
49947;BME280;35839;48.662;13.300;2023-02-22T16:54:13;96899.50;;;15.37;74.72
49947;BME280;35839;48.662;13.300;2023-02-22T16:56:39;96904.13;;;15.63;74.85
49947;BME280;35839;48.662;13.300;2023-02-22T16:59:09;96905.81;;;15.71;72.53
49947;BME280;35839;48.662;13.300;2023-02-22T17:01:35;96902.72;;;15.32;76.24
49947;BME280;35839;48.662;13.300;2023-02-22T17:04:00;96906.97;;;16.38;71.11
49947;BME280;35839;48.662;13.300;2023-02-22T17:06:26;96903.97;;;16.61;67.66
49947;BME280;35839;48.662;13.300;2023-02-22T17:08:53;96901.81;;;16.16;69.81
49947;BME280;35839;48.662;13.300;2023-02-22T17:11:18;96901.41;;;15.78;71.75
49947;BME280;35839;48.662;13.300;2023-02-22T17:13:44;96910.81;;;15.59;71.38
49947;BME280;35839;48.662;13.300;2023-02-22T17:16:14;96902.53;;;15.62;73.81
49947;BME280;35839;48.662;13.300;2023-02-22T17:18:39;96906.19;;;16.51;71.14
49947;BME280;35839;48.662;13.300;2023-02-22T17:21:05;96910.63;;;15.60;74.90
49947;BME280;35839;48.662;13.300;2023-02-22T17:23:31;96911.00;;;15.57;71.83
49947;BME280;35839;48.662;13.300;2023-02-22T17:26:00;96915.81;;;15.47;73.81
49947;BME280;35839;48.662;13.300;2023-02-22T17:28:29;96915.22;;;15.80;70.37
49947;BME280;35839;48.662;13.300;2023-02-22T17:30:56;96919.34;;;15.33;73.15
49947;BME280;35839;48.662;13.300;2023-02-22T17:33:27;96923.00;;;15.10;74.49
49947;BME280;35839;48.662;13.300;2023-02-22T17:35:55;96927.00;;;14.78;77.41
49947;BME280;35839;48.662;13.300;2023-02-22T17:38:22;96924.97;;;15.02;76.54
49947;BME280;35839;48.662;13.300;2023-02-22T17:40:48;96923.97;;;15.03;75.85
49947;BME280;35839;48.662;13.300;2023-02-22T17:43:16;96925.03;;;14.14;81.99
49947;BME280;35839;48.662;13.300;2023-02-22T17:45:43;96928.53;;;14.72;81.07
49947;BME280;35839;48.662;13.300;2023-02-22T17:48:08;96929.03;;;13.65;85.86
49947;BME280;35839;48.662;13.300;2023-02-22T17:50:41;96930.84;;;13.95;84.73
49947;BME280;35839;48.662;13.300;2023-02-22T17:53:07;96932.63;;;14.39;81.86
49947;BME280;35839;48.662;13.300;2023-02-22T17:55:36;96925.63;;;14.31;80.74
49947;BME280;35839;48.662;13.300;2023-02-22T17:58:03;96930.47;;;13.98;81.86
49947;BME280;35839;48.662;13.300;2023-02-22T18:00:32;96922.00;;;14.17;79.93
49947;BME280;35839;48.662;13.300;2023-02-22T18:03:01;96923.19;;;14.29;81.54
49947;BME280;35839;48.662;13.300;2023-02-22T18:05:27;96924.13;;;14.58;80.76
49947;BME280;35839;48.662;13.300;2023-02-22T18:07:53;96923.19;;;14.66;77.58
49947;BME280;35839;48.662;13.300;2023-02-22T18:10:18;96931.28;;;14.13;79.91
49947;BME280;35839;48.662;13.300;2023-02-22T18:12:45;96936.47;;;13.91;81.40
49947;BME280;35839;48.662;13.300;2023-02-22T18:15:12;96935.38;;;14.01;80.88
49947;BME280;35839;48.662;13.300;2023-02-22T18:17:42;96937.06;;;13.34;84.88
49947;BME280;35839;48.662;13.300;2023-02-22T18:20:07;96934.19;;;13.59;83.96
49947;BME280;35839;48.662;13.300;2023-02-22T18:22:39;96931.38;;;14.05;80.43
49947;BME280;35839;48.662;13.300;2023-02-22T18:25:11;96933.81;;;14.21;78.50
49947;BME280;35839;48.662;13.300;2023-02-22T18:27:39;96941.66;;;14.51;77.71
49947;BME280;35839;48.662;13.300;2023-02-22T18:30:05;96933.84;;;14.06;83.12
49947;BME280;35839;48.662;13.300;2023-02-22T18:32:30;96933.94;;;14.13;85.37
49947;BME280;35839;48.662;13.300;2023-02-22T18:34:59;96938.47;;;13.89;87.66
49947;BME280;35839;48.662;13.300;2023-02-22T18:37:24;96929.31;;;14.66;80.94
49947;BME280;35839;48.662;13.300;2023-02-22T18:39:53;96932.75;;;14.01;82.17
49947;BME280;35839;48.662;13.300;2023-02-22T18:42:20;96933.56;;;13.86;83.34
49947;BME280;35839;48.662;13.300;2023-02-22T18:44:47;96929.00;;;13.51;86.69
49947;BME280;35839;48.662;13.300;2023-02-22T18:47:12;96926.16;;;13.37;86.69
49947;BME280;35839;48.662;13.300;2023-02-22T18:49:38;96928.81;;;13.37;86.75
49947;BME280;35839;48.662;13.300;2023-02-22T18:52:06;96930.69;;;13.28;85.54
49947;BME280;35839;48.662;13.300;2023-02-22T18:54:31;96923.88;;;12.96;87.59
49947;BME280;35839;48.662;13.300;2023-02-22T18:56:56;96926.25;;;12.83;90.64
49947;BME280;35839;48.662;13.300;2023-02-22T18:59:22;96924.63;;;12.59;92.58
49947;BME280;35839;48.662;13.300;2023-02-22T19:01:48;96929.53;;;12.62;91.07
49947;BME280;35839;48.662;13.300;2023-02-22T19:04:13;96926.38;;;12.67;92.06
49947;BME280;35839;48.662;13.300;2023-02-22T19:06:39;96935.41;;;12.33;92.55
49947;BME280;35839;48.662;13.300;2023-02-22T19:09:05;96934.06;;;12.45;92.62
49947;BME280;35839;48.662;13.300;2023-02-22T19:11:34;96930.78;;;12.43;94.28
49947;BME280;35839;48.662;13.300;2023-02-22T19:14:01;96935.94;;;12.59;93.79
49947;BME280;35839;48.662;13.300;2023-02-22T19:16:28;96927.84;;;12.92;91.63
49947;BME280;35839;48.662;13.300;2023-02-22T19:18:54;96929.19;;;13.49;85.20
49947;BME280;35839;48.662;13.300;2023-02-22T19:21:26;96928.53;;;13.47;84.53
49947;BME280;35839;48.662;13.300;2023-02-22T19:23:52;96925.56;;;13.65;84.89
49947;BME280;35839;48.662;13.300;2023-02-22T19:26:19;96932.63;;;13.49;85.11
49947;BME280;35839;48.662;13.300;2023-02-22T19:28:48;96934.00;;;13.75;83.36
49947;BME280;35839;48.662;13.300;2023-02-22T19:31:21;96925.25;;;13.07;87.24
49947;BME280;35839;48.662;13.300;2023-02-22T19:33:51;96928.53;;;12.86;89.17
49947;BME280;35839;48.662;13.300;2023-02-22T19:36:17;96929.69;;;13.06;88.24
49947;BME280;35839;48.662;13.300;2023-02-22T19:38:43;96935.81;;;13.22;84.92
49947;BME280;35839;48.662;13.300;2023-02-22T19:41:14;96939.81;;;13.56;82.52
49947;BME280;35839;48.662;13.300;2023-02-22T19:43:42;96939.91;;;13.47;81.85
49947;BME280;35839;48.662;13.300;2023-02-22T19:46:07;96948.88;;;13.38;82.88
49947;BME280;35839;48.662;13.300;2023-02-22T19:48:33;96940.81;;;13.55;81.48
49947;BME280;35839;48.662;13.300;2023-02-22T19:51:06;96950.66;;;12.37;87.37
49947;BME280;35839;48.662;13.300;2023-02-22T19:53:33;96954.78;;;12.63;89.01
49947;BME280;35839;48.662;13.300;2023-02-22T19:55:58;96953.66;;;11.78;99.68
49947;BME280;35839;48.662;13.300;2023-02-22T19:58:23;96958.97;;;11.21;100.00
49947;BME280;35839;48.662;13.300;2023-02-22T20:00:49;96959.81;;;11.22;100.00
49947;BME280;35839;48.662;13.300;2023-02-22T20:03:15;96968.13;;;11.42;100.00
49947;BME280;35839;48.662;13.300;2023-02-22T20:05:47;96973.47;;;11.81;99.39
49947;BME280;35839;48.662;13.300;2023-02-22T20:08:12;96968.25;;;11.65;100.00
49947;BME280;35839;48.662;13.300;2023-02-22T20:10:38;96976.66;;;11.35;100.00
49947;BME280;35839;48.662;13.300;2023-02-22T20:13:03;96973.31;;;11.74;100.00
49947;BME280;35839;48.662;13.300;2023-02-22T20:15:28;96970.97;;;12.04;100.00
49947;BME280;35839;48.662;13.300;2023-02-22T20:17:54;96963.16;;;11.79;100.00
49947;BME280;35839;48.662;13.300;2023-02-22T20:20:20;96982.03;;;11.09;100.00
49947;BME280;35839;48.662;13.300;2023-02-22T20:22:50;96972.88;;;11.13;100.00